Carey — WDC3703 — position and weather

sailwx.info

Track history (hours):
 
Tides and Currents Weather Stations Pressure Air Temp Water Temp Dewpoint Dewpoint Depression Visibility Wind Speed Wind Dir Waves Ship Positions

Carey

Owner: Wilmington Tug, Inc, New Castle, DE. More information available from US FCC via Universal Licensing System and Coast Guard Vessel Documentation Center.

Last reported at 2017-Nov-16 15:42 UTC. Time now 2017-Nov-18 19:39 UTC.
Position N 39°35' W 075°29'.

Length 13 m; draft 2.3 m.

Type: Tug. MMSI: 367012690.

Date/timePositionNaut miles runAvg speedWind from/ knotsBaromVisibWave heightAir tempDewpointWater temp
2017-Nov-16 15:42N 39°35' W 075°29'0 0.0
2017-Nov-16 15:30N 39°35' W 075°29'0 0.0
2017-Nov-16 15:00N 39°35' W 075°29'0 0.0
2017-Nov-16 14:31N 39°35' W 075°29'0 0.0
2017-Nov-16 14:00N 39°35' W 075°29'3 6.1
2017-Nov-16 13:30N 39°33' W 075°32'4 7.6
2017-Nov-16 13:00N 39°36' W 075°34'4 7.7
2017-Nov-16 12:31N 39°40' W 075°32'3 6.7
2017-Nov-16 12:01N 39°43' W 075°31'0 0.0
2017-Nov-15 18:10N 39°43' W 075°31'0 0.5
2017-Nov-15 18:00N 39°43' W 075°31'2 5.0
2017-Nov-15 17:30N 39°41' W 075°32'4 8.6
2017-Nov-15 17:00N 39°37' W 075°35'5 9.1
2017-Nov-15 16:30N 39°33' W 075°32'3 6.6
2017-Nov-15 16:00N 39°35' W 075°29'1 1.2
2017-Nov-15 15:30N 39°34' W 075°30'2 4.5
2017-Nov-15 15:00N 39°33' W 075°32'1 2.4
2017-Nov-15 14:30N 39°32' W 075°33'3 6.1
2017-Nov-15 14:00N 39°35' W 075°35'4 7.5
2017-Nov-15 13:30N 39°38' W 075°35'4 8.3
2017-Nov-15 13:00N 39°41' W 075°31'2 3.2
2017-Nov-15 12:30N 39°43' W 075°31'0 0.0
2017-Nov-14 15:51N 39°43' W 075°31'0 0.0
2017-Nov-14 15:30N 39°43' W 075°31'0 0.0
2017-Nov-14 15:00N 39°43' W 075°31'0 0.0
2017-Nov-14 14:30N 39°43' W 075°31'0 0.0
2017-Nov-14 14:00N 39°43' W 075°31'0 0.6
2017-Nov-14 13:30N 39°43' W 075°31'0 0.6
2017-Nov-14 13:01N 39°43' W 075°31'  
2017-Nov-08 23:23N 39°43' W 075°31'3 8.3
2017-Nov-08 23:00N 39°40' W 075°32'4 8.2
2017-Nov-08 22:30N 39°36' W 075°34'4 7.1
2017-Nov-08 22:00N 39°33' W 075°32'3 1.2
2017-Nov-08 19:45N 39°31' W 075°33'2 8.9
2017-Nov-08 19:30N 39°33' W 075°33'3 5.6
2017-Nov-08 19:00N 39°35' W 075°35'4 7.6
2017-Nov-08 18:30N 39°39' W 075°34'4 8.4
2017-Nov-08 18:00N 39°42' W 075°31'1 0.0
2017-Nov-07 22:18N 39°43' W 075°31'2 5.7
2017-Nov-07 22:00N 39°41' W 075°31'4 8.5
2017-Nov-07 21:30N 39°38' W 075°34'4 8.4
2017-Nov-07 21:00N 39°34' W 075°33'3 5.7
2017-Nov-07 20:30N 39°34' W 075°29'4 4.2
2017-Nov-07 19:33N 39°31' W 075°33'0 9.5
2017-Nov-07 19:31N 39°32' W 075°33'4 7.7
2017-Nov-07 19:00N 39°35' W 075°29'0 0.5
2017-Nov-07 18:30N 39°34' W 075°29'3 5.7
2017-Nov-07 18:00N 39°34' W 075°33'4 8.2
2017-Nov-07 17:30N 39°38' W 075°34'4 8.4
2017-Nov-07 17:00N 39°41' W 075°31'  
Track history (hours):
 
Tides and Currents Weather Stations Pressure Air Temp Water Temp Dewpoint Dewpoint Depression Visibility Wind Speed Wind Dir Waves Ship Positions

Carey

Owner: Wilmington Tug, Inc, New Castle, DE. More information available from US FCC via Universal Licensing System and Coast Guard Vessel Documentation Center.

Last reported at 2017-Nov-16 15:42 UTC. Time now 2017-Nov-18 19:39 UTC.
Position N 39°35' W 075°29'.

Length 13 m; draft 2.3 m.

Type: Tug. MMSI: 367012690.

Date/timePositionNaut miles runAvg speedWind from/ knotsBaromVisibWave heightAir tempDewpointWater temp
2017-Nov-16 15:42N 39°35' W 075°29'0 0.0
2017-Nov-16 15:30N 39°35' W 075°29'0 0.0
2017-Nov-16 15:00N 39°35' W 075°29'0 0.0
2017-Nov-16 14:31N 39°35' W 075°29'0 0.0
2017-Nov-16 14:00N 39°35' W 075°29'3 6.1
2017-Nov-16 13:30N 39°33' W 075°32'4 7.6
2017-Nov-16 13:00N 39°36' W 075°34'4 7.7
2017-Nov-16 12:31N 39°40' W 075°32'3 6.7
2017-Nov-16 12:01N 39°43' W 075°31'0 0.0
2017-Nov-15 18:10N 39°43' W 075°31'0 0.5
2017-Nov-15 18:00N 39°43' W 075°31'2 5.0
2017-Nov-15 17:30N 39°41' W 075°32'4 8.6
2017-Nov-15 17:00N 39°37' W 075°35'5 9.1
2017-Nov-15 16:30N 39°33' W 075°32'3 6.6
2017-Nov-15 16:00N 39°35' W 075°29'1 1.2
2017-Nov-15 15:30N 39°34' W 075°30'2 4.5
2017-Nov-15 15:00N 39°33' W 075°32'1 2.4
2017-Nov-15 14:30N 39°32' W 075°33'3 6.1
2017-Nov-15 14:00N 39°35' W 075°35'4 7.5
2017-Nov-15 13:30N 39°38' W 075°35'4 8.3
2017-Nov-15 13:00N 39°41' W 075°31'2 3.2
2017-Nov-15 12:30N 39°43' W 075°31'0 0.0
2017-Nov-14 15:51N 39°43' W 075°31'0 0.0
2017-Nov-14 15:30N 39°43' W 075°31'0 0.0
2017-Nov-14 15:00N 39°43' W 075°31'0 0.0
2017-Nov-14 14:30N 39°43' W 075°31'0 0.0
2017-Nov-14 14:00N 39°43' W 075°31'0 0.6
2017-Nov-14 13:30N 39°43' W 075°31'0 0.6
2017-Nov-14 13:01N 39°43' W 075°31'  
2017-Nov-08 23:23N 39°43' W 075°31'3 8.3
2017-Nov-08 23:00N 39°40' W 075°32'4 8.2
2017-Nov-08 22:30N 39°36' W 075°34'4 7.1
2017-Nov-08 22:00N 39°33' W 075°32'3 1.2
2017-Nov-08 19:45N 39°31' W 075°33'2 8.9
2017-Nov-08 19:30N 39°33' W 075°33'3 5.6
2017-Nov-08 19:00N 39°35' W 075°35'4 7.6
2017-Nov-08 18:30N 39°39' W 075°34'4 8.4
2017-Nov-08 18:00N 39°42' W 075°31'1 0.0
2017-Nov-07 22:18N 39°43' W 075°31'2 5.7
2017-Nov-07 22:00N 39°41' W 075°31'4 8.5
2017-Nov-07 21:30N 39°38' W 075°34'4 8.4
2017-Nov-07 21:00N 39°34' W 075°33'3 5.7
2017-Nov-07 20:30N 39°34' W 075°29'4 4.2
2017-Nov-07 19:33N 39°31' W 075°33'0 9.5
2017-Nov-07 19:31N 39°32' W 075°33'4 7.7
2017-Nov-07 19:00N 39°35' W 075°29'0 0.5
2017-Nov-07 18:30N 39°34' W 075°29'3 5.7
2017-Nov-07 18:00N 39°34' W 075°33'4 8.2
2017-Nov-07 17:30N 39°38' W 075°34'4 8.4
2017-Nov-07 17:00N 39°41' W 075°31'  

Dump ship's entire track history